createdAt,value
2022-08-11T00:00:36.871Z,69.35156
2022-08-11T00:02:37.348Z,69.31641
2022-08-11T00:04:36.825Z,69.09863
2022-08-11T00:06:36.821Z,68.91797
2022-08-11T00:08:36.827Z,68.70605
2022-08-11T00:10:36.841Z,68.62109
2022-08-11T00:12:37.674Z,68.8291
2022-08-11T00:15:42.090Z,69.10742
2022-08-11T00:17:42.037Z,69.02734
2022-08-11T00:20:13.572Z,68.99219
2022-08-11T00:22:03.244Z,68.85352
2022-08-11T00:23:42.039Z,68.99902
2022-08-11T00:25:42.042Z,69.15332
2022-08-11T00:27:42.037Z,69.06055
2022-08-11T00:30:25.696Z,68.33008
2022-08-11T00:32:25.662Z,68.87891
2022-08-11T00:34:25.669Z,69.02734
2022-08-11T00:36:25.966Z,68.99902
2022-08-11T00:38:25.649Z,68.66504
2022-08-11T00:40:25.653Z,68.89258
2022-08-11T00:42:25.666Z,69.04883
2022-08-11T00:45:41.292Z,69.16406
2022-08-11T00:47:41.279Z,69.30469
2022-08-11T00:49:41.330Z,69.24121
2022-08-11T00:51:56.680Z,69.30762
2022-08-11T00:53:41.315Z,69.125
2022-08-11T00:55:54.548Z,69.02441
2022-08-11T00:57:44.495Z,69.15234
2022-08-11T01:01:01.044Z,69.06152
2022-08-11T01:03:00.591Z,69.2168
2022-08-11T01:05:00.615Z,69.87891
2022-08-11T01:07:00.630Z,69.54102
2022-08-11T01:09:00.585Z,69.87695
2022-08-11T01:11:00.575Z,69.32324
2022-08-11T01:13:00.588Z,69.5
2022-08-11T01:16:16.459Z,69.57715
2022-08-11T01:18:16.444Z,70.49902
2022-08-11T01:20:46.298Z,69.9541
2022-08-11T01:22:16.456Z,69.91797
2022-08-11T01:24:16.496Z,69.66211
2022-08-11T01:26:16.466Z,69.9668
2022-08-11T01:28:16.436Z,69.53809
2022-08-11T01:30:49.982Z,69.47754
2022-08-11T01:32:49.958Z,70.23047
2022-08-11T01:34:49.963Z,70.36426
2022-08-11T01:36:57.122Z,69.97363
2022-08-11T01:38:49.960Z,69.27148
2022-08-11T01:40:50.017Z,70.16797
2022-08-11T01:42:51.605Z,69.98438
2022-08-11T01:44:49.956Z,69.98047
2022-08-11T01:46:44.998Z,69.81055
2022-08-11T01:48:44.988Z,69.84961
2022-08-11T01:50:44.964Z,69.77539
2022-08-11T01:52:45.457Z,70.27539
2022-08-11T01:54:45.015Z,70.20801
2022-08-11T01:56:44.990Z,70.27148
2022-08-11T01:58:44.990Z,70.06152
2022-08-11T02:02:00.103Z,70.02246
2022-08-11T02:04:00.048Z,70
2022-08-11T02:06:00.073Z,69.83789
2022-08-11T02:08:01.885Z,70.17188
2022-08-11T02:10:01.894Z,69.91895
2022-08-11T02:12:02.734Z,69.88281
2022-08-11T02:14:00.071Z,69.92676
2022-08-11T02:16:37.845Z,69.58496
2022-08-11T02:18:37.876Z,69.75
2022-08-11T02:20:37.818Z,69.6709
2022-08-11T02:22:38.076Z,69.37305
2022-08-11T02:24:37.845Z,69.78613
2022-08-11T02:26:37.815Z,69.5127
2022-08-11T02:28:46.329Z,69.80566
2022-08-11T02:32:30.086Z,69.76465
2022-08-11T02:34:15.131Z,69.72949
2022-08-11T02:36:15.138Z,69.38672
2022-08-11T02:38:15.124Z,69.21289
2022-08-11T02:40:15.137Z,69.85059
2022-08-11T02:42:31.867Z,70.01465
2022-08-11T02:44:15.188Z,69.60938
2022-08-11T02:46:51.247Z,69.98828
2022-08-11T02:48:51.207Z,70.00195
2022-08-11T02:50:51.196Z,70.4873
2022-08-11T02:52:51.227Z,70.25195
2022-08-11T02:54:51.215Z,70.49219
2022-08-11T02:56:51.294Z,70.56152
2022-08-11T02:58:51.652Z,70.12012
2022-08-11T03:01:48.329Z,70.35742
2022-08-11T03:03:48.198Z,70.74121
2022-08-11T03:05:50.419Z,70.61621
2022-08-11T03:07:48.224Z,70.49805
2022-08-11T03:09:48.181Z,70.52734
2022-08-11T03:11:48.194Z,70.96777
2022-08-11T03:13:48.177Z,70.92188
2022-08-11T03:15:48.185Z,70.25
2022-08-11T03:17:24.978Z,70.57715
2022-08-11T03:19:24.962Z,70.11133
2022-08-11T03:21:39.607Z,69.9209
2022-08-11T03:23:24.729Z,70.30273
2022-08-11T03:25:24.722Z,70.28516
2022-08-11T03:27:24.770Z,70.29004
2022-08-11T03:29:25.440Z,70.45605
2022-08-11T03:32:24.247Z,70.67578
2022-08-11T03:34:24.207Z,70.81738
2022-08-11T03:36:24.220Z,71.04199
2022-08-11T03:38:30.864Z,70.93945
2022-08-11T03:40:24.251Z,70.68555
2022-08-11T03:42:24.443Z,71.14844
2022-08-11T03:44:24.290Z,70.81055
2022-08-11T03:47:55.910Z,69.05762
2022-08-11T03:49:48.053Z,67.63574
2022-08-11T03:51:52.421Z,64.97559
2022-08-11T03:53:48.073Z,62.45117
2022-08-11T03:55:48.053Z,61.47852
2022-08-11T03:57:48.008Z,60.48926
2022-08-11T03:59:48.018Z,58.19824
2022-08-11T04:02:44.507Z,55.70117
2022-08-11T04:04:51.554Z,54.77344
2022-08-11T04:06:44.443Z,53.0791
2022-08-11T04:08:44.464Z,51.5459
2022-08-11T04:10:44.400Z,49.30078
2022-08-11T04:12:48.084Z,48.46582
2022-08-11T04:14:44.422Z,48.18457
2022-08-11T04:18:11.804Z,47.86719
2022-08-11T04:20:11.792Z,46.92383
2022-08-11T04:22:11.954Z,47.44141
2022-08-11T04:24:37.432Z,46.35254
2022-08-11T04:26:19.268Z,46.00781
2022-08-11T04:28:28.780Z,45.93555
2022-08-11T04:30:12.524Z,46.82129
2022-08-11T04:33:07.823Z,44.26563
2022-08-11T04:35:06.975Z,46.75977
2022-08-11T04:37:07.183Z,48.26367
2022-08-11T04:39:07.077Z,47.98145
2022-08-11T04:41:07.433Z,45.9375
2022-08-11T04:43:06.924Z,41.90039
2022-08-11T04:45:06.869Z,41.25098
2022-08-11T04:48:31.991Z,37.05469
2022-08-11T04:50:31.922Z,36.29785
2022-08-11T04:52:38.536Z,34.36328
2022-08-11T04:54:31.914Z,34.39258
2022-08-11T04:56:31.930Z,33.75391
2022-08-11T04:58:31.980Z,33.85742
2022-08-11T05:00:31.932Z,34.44629
2022-08-11T05:03:47.408Z,34.16113
2022-08-11T05:05:57.259Z,34.71973
2022-08-11T05:07:47.379Z,33.30371
2022-08-11T05:09:47.405Z,34.30176
2022-08-11T05:11:47.382Z,36.30664
2022-08-11T05:13:47.405Z,38.02441
2022-08-11T05:15:51.729Z,40.40234
2022-08-11T05:18:27.298Z,42.89258
2022-08-11T05:20:27.355Z,42.63184
2022-08-11T05:22:27.397Z,43.63965
2022-08-11T05:24:27.281Z,44.49414
2022-08-11T05:26:45.627Z,44.44434
2022-08-11T05:28:27.321Z,45.0752
2022-08-11T05:30:30.811Z,46.45313
2022-08-11T05:33:41.502Z,48.55957
2022-08-11T05:36:01.174Z,47.63672
2022-08-11T05:37:41.487Z,48.53809
2022-08-11T05:39:41.689Z,48.33301
2022-08-11T05:41:41.471Z,48.23535
2022-08-11T05:44:19.570Z,48.78613
2022-08-11T05:45:57.336Z,50.79688
2022-08-11T05:49:32.355Z,49.34961
2022-08-11T05:51:31.000Z,49.56738
2022-08-11T05:53:40.516Z,50.15332
2022-08-11T05:55:31.005Z,49.16211
2022-08-11T05:57:50.135Z,49.54688
2022-08-11T05:59:30.578Z,49.38281
2022-08-11T06:01:30.693Z,48.04102
2022-08-11T06:04:19.218Z,48.17969
2022-08-11T06:06:19.930Z,50.4873
2022-08-11T06:08:19.232Z,49.70508
2022-08-11T06:10:19.255Z,50.00977
2022-08-11T06:12:19.245Z,49.05176
2022-08-11T06:14:19.288Z,49.57422
2022-08-11T06:16:19.252Z,49.00977
2022-08-11T06:19:00.929Z,50.3457
2022-08-11T06:21:00.907Z,49.99316
2022-08-11T06:23:00.936Z,49.08301
2022-08-11T06:25:00.902Z,49.40234
2022-08-11T06:27:13.258Z,49.6582
2022-08-11T06:29:02.706Z,49.52344
2022-08-11T06:31:00.866Z,47.75098
2022-08-11T06:33:00.896Z,49.55371
2022-08-11T06:34:27.537Z,49.35938
2022-08-11T06:36:12.251Z,49.37793
2022-08-11T06:38:12.190Z,49.04395
2022-08-11T06:40:12.175Z,48.83594
2022-08-11T06:42:12.208Z,49.44043
2022-08-11T06:44:12.185Z,50.1748
2022-08-11T06:46:25.236Z,50.48535
2022-08-11T06:48:12.229Z,49.49512
2022-08-11T06:49:53.615Z,50.11426
2022-08-11T06:51:56.836Z,50.19629
2022-08-11T06:54:05.506Z,50.49219
2022-08-11T06:55:58.865Z,49.42676
2022-08-11T06:57:53.677Z,51.75293
2022-08-11T06:59:53.615Z,51.24023
2022-08-11T07:01:53.783Z,50.13965
2022-08-11T07:05:17.522Z,48.79297
2022-08-11T07:07:14.498Z,47.95313
2022-08-11T07:09:14.463Z,48.23047
2022-08-11T07:11:14.595Z,47.13184
2022-08-11T07:13:38.295Z,49.22949
2022-08-11T07:15:14.510Z,49.60449
2022-08-11T07:17:14.617Z,48.00879
2022-08-11T07:20:10.403Z,47.07227
2022-08-11T07:22:10.202Z,48.52637
2022-08-11T07:24:10.877Z,48.91406
2022-08-11T07:26:10.264Z,47.7207
2022-08-11T07:28:10.195Z,48.76953
2022-08-11T07:30:10.765Z,47.88184
2022-08-11T07:32:10.208Z,47.19434
2022-08-11T07:35:40.048Z,46.7334
2022-08-11T07:37:39.970Z,47.03223
2022-08-11T07:39:40.118Z,46.99512
2022-08-11T07:41:40.045Z,46.03516
2022-08-11T07:43:39.976Z,45.02539
2022-08-11T07:45:40.045Z,46.51367
2022-08-11T07:47:39.963Z,46.28613
2022-08-11T07:49:52.674Z,46.16797
2022-08-11T07:51:52.672Z,46.22949
2022-08-11T07:54:03.434Z,46.44043
2022-08-11T07:55:54.420Z,44.62109
2022-08-11T07:58:16.911Z,45.52539
2022-08-11T08:00:03.560Z,45.40039
2022-08-11T08:01:52.936Z,45.5166
2022-08-11T08:03:54.989Z,45.69336
2022-08-11T08:05:53.157Z,44.67676
2022-08-11T08:07:55.346Z,46.1543
2022-08-11T08:09:56.342Z,46.36719
2022-08-11T08:11:55.866Z,45.42773
2022-08-11T08:13:53.160Z,43.42188
2022-08-11T08:15:53.194Z,43.77051
2022-08-11T08:18:08.851Z,44.45215
2022-08-11T08:20:47.078Z,45.30176
2022-08-11T08:22:49.211Z,44.26758
2022-08-11T08:24:47.214Z,45.13965
2022-08-11T08:26:52.046Z,44.71484
2022-08-11T08:28:50.026Z,43.07031
2022-08-11T08:30:47.175Z,43.47363
2022-08-11T08:32:47.083Z,42.86816
2022-08-11T08:35:56.331Z,41.61133
2022-08-11T08:37:53.807Z,43.05371
2022-08-11T08:39:53.991Z,42.87598
2022-08-11T08:41:53.845Z,42.95313
2022-08-11T08:43:53.825Z,43.87109
2022-08-11T08:46:12.301Z,42.95508
2022-08-11T08:48:03.835Z,43.59473
2022-08-11T08:50:52.193Z,38.95605
2022-08-11T08:52:50.389Z,39.57617
2022-08-11T08:54:49.327Z,39.74219
2022-08-11T08:56:49.274Z,41.19238
2022-08-11T08:58:51.893Z,41.00391
2022-08-11T09:00:49.273Z,40.29199
2022-08-11T09:02:49.578Z,41.16504
2022-08-11T09:05:55.123Z,40.05859
2022-08-11T09:07:55.119Z,39.3457
2022-08-11T09:09:55.150Z,42.13086
2022-08-11T09:11:55.172Z,40.10742
2022-08-11T09:14:08.347Z,39.69922
2022-08-11T09:15:56.706Z,39.76855
2022-08-11T09:17:55.118Z,40.01953
2022-08-11T09:21:39.392Z,39.34863
2022-08-11T09:25:18.368Z,38.76953
2022-08-11T09:27:18.342Z,39.80273
2022-08-11T09:29:18.316Z,38.44043
2022-08-11T09:31:22.092Z,39.72656
2022-08-11T09:33:18.312Z,38.58496
2022-08-11T09:36:13.537Z,37.40625
2022-08-11T09:38:13.527Z,35.31445
2022-08-11T09:40:13.537Z,35.37598
2022-08-11T09:42:23.910Z,38.01855
2022-08-11T09:44:13.510Z,37.43457
2022-08-11T09:46:13.522Z,36.85156
2022-08-11T09:48:13.522Z,37.1084
2022-08-11T09:52:03.387Z,35.53027
2022-08-11T09:54:02.796Z,37.60645
2022-08-11T09:55:52.056Z,35.11328
2022-08-11T09:57:52.019Z,35.30371
2022-08-11T09:59:52.411Z,37.99902
2022-08-11T10:01:52.180Z,38.2627
2022-08-11T10:03:52.082Z,38.66504
2022-08-11T10:07:16.277Z,37.59668
2022-08-11T10:09:16.174Z,37.68359
2022-08-11T10:11:16.188Z,35.9873
2022-08-11T10:13:44.183Z,35.75293
2022-08-11T10:15:18.819Z,34.57422
2022-08-11T10:17:16.236Z,34.50977
2022-08-11T10:19:16.248Z,33.85938
2022-08-11T10:21:49.289Z,34.4707
2022-08-11T10:24:00.715Z,33.88965
2022-08-11T10:25:49.320Z,34.54688
2022-08-11T10:28:18.653Z,35.69824
2022-08-11T10:29:51.042Z,34.87207
2022-08-11T10:31:59.417Z,33.98047
2022-08-11T10:33:59.841Z,33.91406
2022-08-11T10:38:07.148Z,33.49316
2022-08-11T10:39:33.480Z,35.20215
2022-08-11T10:41:33.219Z,33.97168
2022-08-11T10:43:59.892Z,34.55469
2022-08-11T10:45:33.220Z,33.20801
2022-08-11T10:47:33.361Z,32.97656
2022-08-11T10:49:33.199Z,33.07813
2022-08-11T10:51:59.042Z,33.10645
2022-08-11T10:53:54.057Z,34.31543
2022-08-11T10:55:58.981Z,34.19727
2022-08-11T10:58:04.441Z,34.77148
2022-08-11T10:59:54.047Z,34.09863
2022-08-11T11:01:54.190Z,33.2002
2022-08-11T11:03:54.245Z,34.36328
2022-08-11T11:06:13.095Z,33.84277
2022-08-11T11:07:36.980Z,32.22656
2022-08-11T11:09:30.932Z,31.5332
2022-08-11T11:11:31.002Z,31.91602
2022-08-11T11:13:31.061Z,30.68555
2022-08-11T11:15:30.953Z,30.85938
2022-08-11T11:17:30.983Z,30.56055
2022-08-11T11:19:30.934Z,31.625
2022-08-11T11:22:30.671Z,30.50293
2022-08-11T11:24:30.623Z,28.79688
2022-08-11T11:26:30.535Z,29.59961
2022-08-11T11:28:30.532Z,30.73926
2022-08-11T11:30:30.547Z,29.32422
2022-08-11T11:32:30.555Z,30.19824
2022-08-11T11:34:30.535Z,30.72461
2022-08-11T11:36:30.562Z,30.48535
2022-08-11T11:38:32.922Z,30.30273
2022-08-11T11:40:32.953Z,29.75781
2022-08-11T11:42:32.861Z,29.63867
2022-08-11T11:44:32.879Z,29.33496
2022-08-11T11:46:42.225Z,30.66895
2022-08-11T11:48:32.905Z,29.72266
2022-08-11T11:50:33.384Z,31.08887
2022-08-11T11:53:20.645Z,30.26953
2022-08-11T11:57:20.656Z,31.19043
2022-08-11T11:59:20.627Z,32.09473
2022-08-11T12:01:20.654Z,30.16113
2022-08-11T12:03:20.884Z,29.78711
2022-08-11T12:05:20.640Z,30.41797
2022-08-11T12:08:49.101Z,30.08887
2022-08-11T12:10:49.227Z,31.62598
2022-08-11T12:12:49.076Z,31.53418
2022-08-11T12:14:49.086Z,31.55762
2022-08-11T12:16:48.939Z,31.56934
2022-08-11T12:18:51.955Z,31.34082
2022-08-11T12:20:48.968Z,31.19238
2022-08-11T12:23:53.412Z,30.91699
2022-08-11T12:26:25.674Z,31.43848
2022-08-11T12:27:53.419Z,29.96875
2022-08-11T12:29:55.969Z,29.67871
2022-08-11T12:31:55.233Z,30.14258
2022-08-11T12:33:53.463Z,30.53906
2022-08-11T12:36:01.465Z,31.73828
2022-08-11T12:38:31.654Z,31.04199
2022-08-11T12:40:50.178Z,31.58105
2022-08-11T12:42:31.652Z,31.38965
2022-08-11T12:44:31.633Z,30.98242
2022-08-11T12:46:31.922Z,30.57129
2022-08-11T12:48:58.005Z,30.34082
2022-08-11T12:50:31.584Z,29.63867
2022-08-11T12:54:22.631Z,30.50098
2022-08-11T12:56:22.714Z,30.44531
2022-08-11T12:58:22.620Z,31.21875
2022-08-11T13:00:22.627Z,30.84668
2022-08-11T13:02:24.577Z,30.90723
2022-08-11T13:04:22.804Z,29.35547
2022-08-11T13:06:22.727Z,30.12305
2022-08-11T13:09:01.244Z,30.45605
2022-08-11T13:10:55.627Z,29.21289
2022-08-11T13:12:55.450Z,29.92773
2022-08-11T13:14:55.493Z,29.24512
2022-08-11T13:16:55.479Z,29.59863
2022-08-11T13:18:55.783Z,30.28125
2022-08-11T13:20:55.458Z,30.27051
2022-08-11T13:24:22.009Z,31.27637
2022-08-11T13:26:43.255Z,31.27051
2022-08-11T13:28:22.137Z,29.66211
2022-08-11T13:30:22.058Z,30.29883
2022-08-11T13:32:22.122Z,30.52246
2022-08-11T13:34:22.017Z,29.62695
2022-08-11T13:36:22.041Z,30.71973
2022-08-11T13:39:15.811Z,30.33398
2022-08-11T13:41:16.099Z,30.34668
2022-08-11T13:43:15.355Z,30.32715
2022-08-11T13:45:15.449Z,31.8623
2022-08-11T13:47:15.569Z,30.48828
2022-08-11T13:49:15.583Z,30.20508
2022-08-11T13:51:15.604Z,30.05957
2022-08-11T13:54:16.379Z,30.75879
2022-08-11T13:56:16.167Z,30.68164
2022-08-11T13:58:39.791Z,31.87891
2022-08-11T14:00:27.859Z,31.625
2022-08-11T14:02:28.923Z,30.64746
2022-08-11T14:04:29.591Z,32.44141
2022-08-11T14:06:16.109Z,30.33105
2022-08-11T14:09:39.860Z,31.7666
2022-08-11T14:12:20.653Z,31.6416
2022-08-11T14:13:47.350Z,30.82715
2022-08-11T14:15:39.830Z,31.58398
2022-08-11T14:17:49.278Z,31.00293
2022-08-11T14:19:39.833Z,31.37305
2022-08-11T14:21:39.972Z,31.29883
2022-08-11T14:24:21.013Z,31.54004
2022-08-11T14:26:20.938Z,31.36523
2022-08-11T14:28:35.423Z,31.36523
2022-08-11T14:30:20.989Z,30.7207
2022-08-11T14:32:21.006Z,31.2207
2022-08-11T14:34:20.919Z,32.50781
2022-08-11T14:36:21.049Z,32.37207
2022-08-11T14:38:20.984Z,33.66211
2022-08-11T14:40:13.569Z,33.79785
2022-08-11T14:42:13.808Z,34.48047
2022-08-11T14:44:15.028Z,34.4209
2022-08-11T14:46:13.498Z,35.56543
2022-08-11T14:48:13.477Z,35.00195
2022-08-11T14:50:13.659Z,35.61328
2022-08-11T14:52:13.718Z,35.83398
2022-08-11T14:55:35.942Z,36.14355
2022-08-11T14:57:54.721Z,36.12988
2022-08-11T14:59:36.029Z,36.21973
2022-08-11T15:01:36.115Z,36.58203
2022-08-11T15:03:36.040Z,36.51563
2022-08-11T15:05:35.990Z,37.10254
2022-08-11T15:07:35.953Z,37.60059
2022-08-11T15:10:28.420Z,37.84961
2022-08-11T15:12:33.773Z,37.32813
2022-08-11T15:14:28.466Z,37.72754
2022-08-11T15:16:28.300Z,37.97168
2022-08-11T15:18:28.506Z,38.11621
2022-08-11T15:20:29.331Z,38.08496
2022-08-11T15:22:29.280Z,38.17969
2022-08-11T15:25:41.205Z,38.8584
2022-08-11T15:27:41.906Z,39.49219
2022-08-11T15:29:41.319Z,39.48828
2022-08-11T15:31:49.375Z,39.54883
2022-08-11T15:33:41.360Z,39.22559
2022-08-11T15:35:41.201Z,39.19336
2022-08-11T15:37:41.596Z,38.07129
2022-08-11T15:40:50.414Z,38.26172
2022-08-11T15:42:50.146Z,38.41406
2022-08-11T15:45:02.997Z,38.65723
2022-08-11T15:46:55.170Z,38.13086
2022-08-11T15:48:50.223Z,38.53809
2022-08-11T15:50:50.311Z,38.24609
2022-08-11T15:52:50.480Z,37.79102
2022-08-11T15:56:02.953Z,38.53125
2022-08-11T15:58:03.000Z,38.53711
2022-08-11T16:00:02.844Z,39.00195
2022-08-11T16:02:03.091Z,38.47559
2022-08-11T16:04:09.107Z,38.84668
2022-08-11T16:06:02.838Z,38.73828
2022-08-11T16:08:03.285Z,38.69629
2022-08-11T16:11:09.886Z,39.24316
2022-08-11T16:13:09.947Z,39.01367
2022-08-11T16:15:09.890Z,39.62793
2022-08-11T16:17:09.860Z,38.71289
2022-08-11T16:19:09.924Z,38.6875
2022-08-11T16:21:25.937Z,39.19141
2022-08-11T16:23:09.923Z,39.54688
2022-08-11T16:27:06.683Z,39.50391
2022-08-11T16:28:00.746Z,39.7002
2022-08-11T16:30:00.960Z,39.9043
2022-08-11T16:32:00.871Z,39.52441
2022-08-11T16:34:00.896Z,38.79297
2022-08-11T16:36:00.806Z,39.73242
2022-08-11T16:38:00.914Z,39.16406
2022-08-11T16:41:39.246Z,39.28711
2022-08-11T16:43:39.449Z,39.65723
2022-08-11T16:45:39.168Z,39.36035
2022-08-11T16:48:02.416Z,39.5332
2022-08-11T16:49:39.215Z,39.87207
2022-08-11T16:51:42.089Z,40.29492
2022-08-11T16:54:03.461Z,40.08105
2022-08-11T16:56:15.802Z,40.56641
2022-08-11T16:58:15.747Z,40.83691
2022-08-11T17:00:16.303Z,40.7666
2022-08-11T17:02:15.699Z,43.12207
2022-08-11T17:04:15.821Z,42.89453
2022-08-11T17:06:15.593Z,43.14648
2022-08-11T17:08:15.627Z,43.3623
2022-08-11T17:11:11.917Z,43.13086
2022-08-11T17:13:11.847Z,42.90527
2022-08-11T17:15:11.855Z,43.07031
2022-08-11T17:17:11.897Z,43.3457
2022-08-11T17:19:11.941Z,43.22363
2022-08-11T17:21:11.885Z,43.63867
2022-08-11T17:23:13.588Z,43.91406
2022-08-11T17:25:11.883Z,44.03418
2022-08-11T17:27:03.404Z,44.04102
2022-08-11T17:29:02.208Z,44.53125
2022-08-11T17:31:18.477Z,44.13477
2022-08-11T17:33:02.241Z,44.75098
2022-08-11T17:35:02.203Z,44.91309
2022-08-11T17:37:02.190Z,44.96094
2022-08-11T17:39:02.175Z,44.84766
2022-08-11T17:41:25.795Z,45.29492
2022-08-11T17:43:25.825Z,45.23145
2022-08-11T17:45:25.777Z,45.41797
2022-08-11T17:47:26.001Z,45.34473
2022-08-11T17:49:25.879Z,45.44922
2022-08-11T17:51:25.779Z,45.76172
2022-08-11T17:53:25.763Z,45.87305
2022-08-11T17:55:51.407Z,46.06934
2022-08-11T17:57:20.609Z,46.26172
2022-08-11T17:59:06.290Z,46.33105
2022-08-11T18:01:10.002Z,46.49414
2022-08-11T18:03:06.666Z,46.55469
2022-08-11T18:05:13.832Z,46.55957
2022-08-11T18:07:06.424Z,46.625
2022-08-11T18:09:06.515Z,46.5
2022-08-11T18:12:54.037Z,46.20898
2022-08-11T18:14:54.036Z,46.63086
2022-08-11T18:16:53.924Z,46.73633
2022-08-11T18:18:53.926Z,46.64258
2022-08-11T18:20:53.979Z,46.46191
2022-08-11T18:22:53.933Z,46.5498
2022-08-11T18:24:54.954Z,47.0957
2022-08-11T18:27:08.299Z,47.19238
2022-08-11T18:29:08.263Z,47.72949
2022-08-11T18:31:13.258Z,48.0127
2022-08-11T18:33:40.218Z,47.60547
2022-08-11T18:35:08.248Z,47.60352
2022-08-11T18:37:08.228Z,47.60254
2022-08-11T18:39:08.218Z,47.09961
2022-08-11T18:41:08.206Z,47.77246
2022-08-11T18:43:10.487Z,47.9082
2022-08-11T18:45:10.489Z,48.00098
2022-08-11T18:47:11.529Z,48.16406
2022-08-11T18:49:16.069Z,48.33203
2022-08-11T18:51:30.191Z,48.00391
2022-08-11T18:53:10.537Z,47.0293
2022-08-11T18:55:14.051Z,47.90234
2022-08-11T18:58:14.181Z,47.46191
2022-08-11T19:00:15.460Z,47.47852
2022-08-11T19:02:14.482Z,47.02832
2022-08-11T19:04:19.289Z,47.83301
2022-08-11T19:06:37.967Z,48.06445
2022-08-11T19:08:14.456Z,48.10547
2022-08-11T19:10:14.692Z,48.3623
2022-08-11T19:13:13.565Z,49.125
2022-08-11T19:15:13.854Z,49.12012
2022-08-11T19:17:43.162Z,49.5459
2022-08-11T19:19:13.715Z,49.43945
2022-08-11T19:21:13.791Z,49.10938
2022-08-11T19:23:13.768Z,49.36426
2022-08-11T19:25:13.730Z,49.49707
2022-08-11T19:28:33.624Z,49.92773
2022-08-11T19:30:33.615Z,49.27246
2022-08-11T19:32:33.588Z,48.53125
2022-08-11T19:34:33.635Z,48.78027
2022-08-11T19:36:33.645Z,49.03418
2022-08-11T19:38:33.606Z,49.32129
2022-08-11T19:40:33.597Z,50.02344
2022-08-11T19:43:51.894Z,49.85938
2022-08-11T19:45:53.190Z,48.68555
2022-08-11T19:48:28.357Z,47.9248
2022-08-11T19:49:51.930Z,48.62109
2022-08-11T19:51:54.746Z,49.13379
2022-08-11T19:53:51.864Z,49.43945
2022-08-11T19:55:51.899Z,49.52832
2022-08-11T19:58:14.001Z,48.57617
2022-08-11T20:00:14.177Z,49.54102
2022-08-11T20:02:15.292Z,50.11621
2022-08-11T20:04:14.095Z,50.02148
2022-08-11T20:06:13.995Z,49.65234
2022-08-11T20:08:13.988Z,49.71191
2022-08-11T20:10:14.031Z,49.63867
2022-08-11T20:12:14.937Z,49.59766
2022-08-11T20:13:28.501Z,49.5625
2022-08-11T20:15:28.091Z,49.73242
2022-08-11T20:17:27.969Z,49.76758
2022-08-11T20:19:54.852Z,49.77344
2022-08-11T20:21:33.365Z,49.59473
2022-08-11T20:23:27.967Z,49.44531
2022-08-11T20:25:27.995Z,48.81348
2022-08-11T20:29:25.574Z,49.46191
2022-08-11T20:31:25.519Z,50.17676
2022-08-11T20:33:25.479Z,49.96387
2022-08-11T20:35:25.530Z,50.20605
2022-08-11T20:37:25.375Z,50.2832
2022-08-11T20:39:25.540Z,50.0752
2022-08-11T20:41:25.390Z,49.75195
2022-08-11T20:44:09.258Z,50.18066
2022-08-11T20:46:01.027Z,50.42188
2022-08-11T20:48:01.767Z,50.38281
2022-08-11T20:50:03.373Z,50.55176
2022-08-11T20:52:06.484Z,50.48242
2022-08-11T20:54:06.044Z,50.73828
2022-08-11T20:56:07.005Z,50.74219
2022-08-11T20:59:50.170Z,50.72363
2022-08-11T21:01:41.314Z,51.02246
2022-08-11T21:03:45.360Z,51.05859
2022-08-11T21:06:09.726Z,51.05273
2022-08-11T21:07:34.564Z,51.03906
2022-08-11T21:09:58.007Z,51.27148
2022-08-11T21:11:34.510Z,51.50391
2022-08-11T21:14:19.917Z,51.21484
2022-08-11T21:16:27.134Z,51.22266
2022-08-11T21:18:29.597Z,51.31445
2022-08-11T21:20:21.240Z,51.61426
2022-08-11T21:22:20.520Z,51.89648
2022-08-11T21:24:22.434Z,51.79395
2022-08-11T21:26:19.222Z,52.06152
2022-08-11T21:29:19.002Z,51.83008
2022-08-11T21:31:19.045Z,51.77051
2022-08-11T21:33:18.995Z,51.62988
2022-08-11T21:35:18.997Z,51.54004
2022-08-11T21:37:18.991Z,52.07617
2022-08-11T21:39:24.792Z,51.80078
2022-08-11T21:41:18.992Z,52.03809
2022-08-11T21:45:05.621Z,52.06543
2022-08-11T21:47:05.609Z,51.79199
2022-08-11T21:49:05.661Z,51.96582
2022-08-11T21:51:05.586Z,52.32617
2022-08-11T21:53:05.626Z,52.47656
2022-08-11T21:55:05.617Z,52.59277
2022-08-11T21:57:05.589Z,52.19629
2022-08-11T22:00:25.148Z,52.46973
2022-08-11T22:02:25.129Z,51.67188
2022-08-11T22:04:25.151Z,52.05957
2022-08-11T22:06:25.118Z,52.22266
2022-08-11T22:08:25.223Z,52.72656
2022-08-11T22:10:41.684Z,52.22363
2022-08-11T22:12:35.856Z,52.93652
2022-08-11T22:14:50.371Z,52.95313
2022-08-11T22:16:50.299Z,52.58691
2022-08-11T22:18:50.421Z,52.77344
2022-08-11T22:20:50.326Z,52.70996
2022-08-11T22:22:54.201Z,53.43262
2022-08-11T22:24:50.259Z,53.30957
2022-08-11T22:26:50.196Z,53.37305
2022-08-11T22:30:26.650Z,52.69727
2022-08-11T22:32:26.470Z,52.55371
2022-08-11T22:34:26.560Z,52.74316
2022-08-11T22:36:26.431Z,52.90918
2022-08-11T22:38:26.395Z,53.43359
2022-08-11T22:40:26.451Z,52.49805
2022-08-11T22:42:34.143Z,52.52637
2022-08-11T22:45:07.554Z,52.76465
2022-08-11T22:47:07.539Z,52.04102
2022-08-11T22:49:07.605Z,52.27148
2022-08-11T22:51:07.614Z,52.69238
2022-08-11T22:53:07.552Z,52.77441
2022-08-11T22:55:10.230Z,52.88867
2022-08-11T22:57:07.547Z,52.22754
2022-08-11T22:59:07.596Z,52.05078
2022-08-11T23:00:46.066Z,52.55078
2022-08-11T23:02:46.075Z,52.31445
2022-08-11T23:04:53.417Z,52.9375
2022-08-11T23:06:46.108Z,53.15234
2022-08-11T23:08:46.122Z,53.27051
2022-08-11T23:10:46.087Z,53.13574
2022-08-11T23:12:47.742Z,53.15039
2022-08-11T23:15:29.415Z,53.33398
2022-08-11T23:17:29.471Z,53.33789
2022-08-11T23:20:01.771Z,53.11133
2022-08-11T23:21:29.484Z,53.38281
2022-08-11T23:23:29.457Z,53.17773
2022-08-11T23:25:29.412Z,53.41797
2022-08-11T23:27:29.431Z,53.94922
2022-08-11T23:30:38.399Z,53.45215
2022-08-11T23:32:38.665Z,53.89355
2022-08-11T23:35:03.269Z,53.38867
2022-08-11T23:36:48.099Z,53.64844
2022-08-11T23:38:38.435Z,53.43066
2022-08-11T23:40:38.418Z,53.1416
2022-08-11T23:42:38.487Z,52.70898
2022-08-11T23:46:33.866Z,53.4502
2022-08-11T23:48:33.895Z,54.54492
2022-08-11T23:50:33.861Z,54.09863
2022-08-11T23:52:34.046Z,54.06738
2022-08-11T23:54:37.767Z,54.60938
2022-08-11T23:56:33.858Z,54.53418
2022-08-11T23:58:33.872Z,55.33789
